Latest Coastal Weather Observations for Creal Reef

IDQ60701

Issued at 11:55 am EST Wednesday 22 October 2014 (issued every 10 minutes, with the page automatically refreshed every 10 minutes)

About coastal observations | Map of coastal stations | Coastal observations for QLD | Marine services | Other Formats
Station Details ID: 200736 Name: CREAL REEF Lat: -20.53 Lon: 150.38 Height: 1.7 m
Data from the previous 72 hours. | See also: Recent months for locations in Queensland
Date/Time
EST
Temp

°C
Wind Pressure Rain
since 9am
mm
Weather Cloud Vis
km
Sea
Height
m
Swell
Dir
 
Speed
knots
Gust
knots
hPa Trend Height
m
Period
s
Dir
22/11:30am 23.3 SE 21 24 1020.0 - - - - - - - - -
22/11:20am 23.5 SE 22 - 1020.0 - - - - - - - - -
22/11:00am 23.4 SE 22 25 1020.2 - - - - - - - - -
22/10:30am 23.5 SE 21 25 1020.4 - - - - - - - - -
22/10:20am 23.4 SE 22 - 1020.3 - - - - - - - - -
22/10:00am 23.6 SE 21 26 1020.4 - - - - - - - - -
22/09:30am 23.2 SE 20 23 1020.4 - - - - - - - - -
22/09:20am 23.3 SE 20 - 1020.3 - - - - - - - - -
22/09:00am 23.3 SE 22 27 1020.6 - - - - - - - - -
22/08:30am 23.4 SE 21 24 1020.5 - - - - - - - - -
22/08:20am 23.3 SE 21 - 1020.4 - - - - - - - - -
22/08:00am 23.3 SE 19 22 1020.3 - - - - - - - - -
22/07:30am 23.2 SE 21 25 1020.3 - - - - - - - - -
22/07:20am 23.2 SE 22 - 1020.2 - - - - - - - - -
22/07:00am 23.1 SE 22 26 1020.3 - - - - - - - - -
22/06:30am 23.0 SE 22 27 1020.0 - - - - - - - - -
22/06:20am 22.8 SE 23 - 1019.8 - - - - - - - - -
22/06:00am 22.8 SE 23 28 1019.6 - - - - - - - - -
22/05:30am 22.9 SE 24 28 1019.4 - - - - - - - - -
22/05:20am 22.9 SE 25 - 1019.2 - - - - - - - - -
22/05:00am 22.7 SE 26 29 1019.2 - - - - - - - - -
22/04:30am 22.7 SE 27 31 1018.9 - - - - - - - - -
22/04:20am 22.7 SE 27 - 1018.8 - - - - - - - - -
22/04:00am 22.8 SE 27 31 1018.8 - - - - - - - - -
22/03:30am 22.7 SE 27 31 1018.9 - - - - - - - - -
22/03:20am 22.8 SE 27 - 1018.8 - - - - - - - - -
22/03:00am 22.8 SE 27 32 1018.9 - - - - - - - - -
22/02:30am 22.8 SE 27 33 1019.0 - - - - - - - - -
22/02:20am 22.9 SE 28 - 1018.8 - - - - - - - - -
22/02:00am 23.0 SE 26 31 1019.2 - - - - - - - - -
22/01:30am 22.5 SE 24 31 1019.6 - - - - - - - - -
22/01:21am 21.7 SE 24 34 1019.8 - - - - - - - - -
22/01:20am 21.5 SE 25 - 1019.7 - - - - - - - - -
22/01:00am 20.9 ESE 22 30 1020.1 - - - - - - - - -
22/12:39am 21.8 SE 19 28 1020.3 - - - - - - - - -
22/12:30am 21.7 E 21 26 1020.6 - - - - - - - - -
22/12:21am 21.6 E 23 29 1020.7 - - - - - - - - -
22/12:20am 21.7 SE 22 - 1020.6 - - - - - - - - -
22/12:00am 22.0 SE 24 29 1021.0 - - - - - - - - -
 
Date/Time
EST
Temp

°C
Wind Pressure Rain
since 9am
mm
Weather Cloud Vis
km
Sea
Height
m
Swell
Dir
 
Speed
knots
Gust
knots
hPa Trend Height
m
Period
s
Dir
21/11:30pm 22.0 SE 21 24 1021.2 - - - - - - - - -
21/11:20pm 22.3 SE 22 - 1021.2 - - - - - - - - -
21/11:00pm 21.5 SE 28 33 1021.5 - - - - - - - - -
21/10:30pm 22.6 SE 24 27 1021.4 - - - - - - - - -
21/10:20pm 22.3 SE 23 - 1021.4 - - - - - - - - -
21/10:00pm 22.9 SE 24 27 1021.5 - - - - - - - - -
21/09:30pm 23.3 SE 23 27 1021.6 - - - - - - - - -
21/09:20pm 23.4 SE 24 - 1021.4 - - - - - - - - -
21/09:00pm 23.1 SE 23 28 1021.4 - - - - - - - - -
21/08:30pm 22.4 SE 25 30 1021.2 - - - - - - - - -
21/08:20pm 23.3 SE 20 - 1021.0 - - - - - - - - -
21/08:00pm 23.6 SE 23 27 1020.7 - - - - - - - - -
21/07:30pm 23.6 SE 24 27 1020.6 - - - - - - - - -
21/07:20pm 23.6 ESE 23 - 1020.6 - - - - - - - - -
21/07:00pm 23.4 ESE 20 23 1020.6 - - - - - - - - -
21/06:30pm 23.1 SE 21 25 1020.4 - - - - - - - - -
21/06:20pm 23.5 SE 21 - 1020.2 - - - - - - - - -
21/06:00pm 23.4 SE 20 24 1020.0 - - - - - - - - -
21/05:30pm 23.3 SE 21 25 1019.8 - - - - - - - - -
21/05:20pm 23.1 SE 21 - 1019.5 - - - - - - - - -
21/05:00pm 23.4 SE 22 25 1019.4 - - - - - - - - -
21/04:30pm 23.4 SE 22 25 1019.3 - - - - - - - - -
21/04:20pm 23.5 SE 22 - 1019.2 - - - - - - - - -
21/04:00pm 23.6 SE 23 27 1019.1 - - - - - - - - -
21/03:30pm 23.7 SE 23 26 1019.2 - - - - - - - - -
21/03:20pm 23.7 SE 23 - 1019.1 - - - - - - - - -
21/03:00pm 23.7 SE 22 26 1019.2 - - - - - - - - -
21/02:30pm 23.6 SE 22 25 1019.3 - - - - - - - - -
21/02:20pm 23.8 SE 21 - 1019.3 - - - - - - - - -
21/02:00pm 23.6 SE 20 23 1019.6 - - - - - - - - -
21/01:30pm 23.7 SE 21 24 1019.9 - - - - - - - - -
21/01:20pm 23.6 SE 21 - 1019.8 - - - - - - - - -
21/01:00pm 23.8 SE 22 25 1020.1 - - - - - - - - -
21/12:30pm 23.7 SE 24 28 1020.6 - - - - - - - - -
21/12:20pm 23.6 SE 23 - 1020.5 - - - - - - - - -
21/12:00pm 23.5 SE 22 26 1020.9 - - - - - - - - -
21/11:30am 23.5 SE 23 27 1021.2 - - - - - - - - -
21/11:20am 23.5 SE 23 - 1021.2 - - - - - - - - -
21/11:00am 23.5 SE 23 28 1021.4 - - - - - - - - -
21/10:30am 23.6 ESE 23 26 1021.4 - - - - - - - - -
21/10:20am 23.6 ESE 24 - 1021.3 - - - - - - - - -
21/10:00am 23.7 ESE 25 28 1021.4 - - - - - - - - -
21/09:30am 23.9 ESE 22 25 1021.4 - - - - - - - - -
21/09:20am 23.8 ESE 22 - 1021.4 - - - - - - - - -
21/09:00am 24.0 ESE 22 26 1021.6 - - - - - - - - -
21/08:30am 23.7 ESE 22 26 1021.4 - - - - - - - - -
21/08:20am 23.6 ESE 22 - 1021.2 - - - - - - - - -
21/08:00am 23.0 ESE 14 21 1021.1 - - - - - - - - -
21/07:50am 22.5 ESE 16 26 1021.1 - - - - - - - - -
21/07:36am 22.1 E 16 25 1021.0 - - - - - - - - -
21/07:30am 23.3 SE 20 23 1020.8 - - - - - - - - -
21/07:20am 23.1 SE 24 - 1020.6 - - - - - - - - -
21/07:00am 22.3 SE 20 24 1020.5 - - - - - - - - -
21/06:30am 23.2 SE 20 23 1020.1 - - - - - - - - -
21/06:20am 23.2 SE 21 - 1019.9 - - - - - - - - -
21/06:00am 23.2 SE 20 23 1019.7 - - - - - - - - -
21/05:30am 23.3 ESE 21 24 1019.6 - - - - - - - - -
21/05:20am 23.3 SE 21 - 1019.4 - - - - - - - - -
21/05:00am 23.3 ESE 18 21 1019.2 - - - - - - - - -
21/04:30am 23.2 ESE 17 20 1019.1 - - - - - - - - -
21/04:20am 23.4 ESE 18 - 1018.9 - - - - - - - - -
21/04:00am 23.1 SE 21 26 1018.8 - - - - - - - - -
21/03:30am 23.1 ESE 21 25 1018.7 - - - - - - - - -
21/03:20am 23.1 ESE 22 - 1018.5 - - - - - - - - -
21/03:00am 23.1 ESE 21 26 1018.6 - - - - - - - - -
21/02:30am 23.1 ESE 22 28 1018.6 - - - - - - - - -
21/02:20am 23.1 SE 21 - 1018.4 - - - - - - - - -
21/02:00am 23.2 ESE 23 27 1018.7 - - - - - - - - -
21/01:30am 23.2 ESE 22 27 1018.9 - - - - - - - - -
21/01:20am 23.3 ESE 24 - 1019.0 - - - - - - - - -
21/01:00am 23.3 ESE 22 26 1019.3 - - - - - - - - -
21/12:30am 23.4 ESE 23 27 1019.8 - - - - - - - - -
21/12:20am 23.4 SE 21 - 1019.9 - - - - - - - - -
21/12:00am 23.5 ESE 23 27 1020.3 - - - - - - - - -
 
Date/Time
EST
Temp

°C
Wind Pressure Rain
since 9am
mm
Weather Cloud Vis
km
Sea
Height
m
Swell
Dir
 
Speed
knots
Gust
knots
hPa Trend Height
m
Period
s
Dir
20/11:30pm 23.5 ESE 21 25 1020.9 - - - - - - - - -
20/11:20pm 23.5 ESE 21 - 1021.0 - - - - - - - - -
20/11:00pm 23.5 ESE 19 22 1021.3 - - - - - - - - -
20/10:30pm 23.6 ESE 21 24 1021.5 - - - - - - - - -
20/10:20pm 23.7 SE 20 - 1021.4 - - - - - - - - -
20/10:00pm 23.5 ESE 21 25 1021.4 - - - - - - - - -
20/09:30pm 23.5 ESE 21 25 1021.4 - - - - - - - - -
20/09:20pm 23.5 ESE 20 - 1021.3 - - - - - - - - -
20/09:00pm 23.6 ESE 20 24 1021.2 - - - - - - - - -
20/08:30pm 23.7 ESE 19 22 1020.9 - - - - - - - - -
20/08:20pm 23.4 ESE 21 - 1020.7 - - - - - - - - -
20/08:00pm 23.6 ESE 24 27 1020.6 - - - - - - - - -
20/07:30pm 23.4 ESE 22 26 1020.3 - - - - - - - - -
20/07:20pm 23.5 ESE 20 - 1020.2 - - - - - - - - -
20/07:00pm 23.4 ESE 20 24 1020.0 - - - - - - - - -
20/06:30pm 23.5 ESE 21 24 1019.6 - - - - - - - - -
20/06:20pm 23.6 ESE 21 - 1019.3 - - - - - - - - -
20/06:00pm 23.6 SE 18 21 1019.2 - - - - - - - - -
20/05:30pm 23.7 SE 19 22 1018.7 - - - - - - - - -
20/05:20pm 23.6 SE 19 - 1018.5 - - - - - - - - -
20/05:00pm 23.5 ESE 20 22 1018.2 - - - - - - - - -
20/04:30pm 23.4 ESE 20 24 1017.8 - - - - - - - - -
20/04:20pm 23.5 ESE 20 - 1017.5 - - - - - - - - -
20/04:00pm 23.5 SE 20 24 1017.6 - - - - - - - - -
20/03:30pm 23.7 SE 22 26 1017.5 - - - - - - - - -
20/03:20pm 23.7 SE 22 - 1017.5 - - - - - - - - -
20/03:00pm 23.8 ESE 22 25 1017.6 - - - - - - - - -
20/02:30pm 23.7 SE 22 26 1018.0 - - - - - - - - -
20/02:20pm 23.7 SE 21 - 1018.2 - - - - - - - - -
20/02:00pm 23.8 ESE 21 24 1018.6 - - - - - - - - -
20/01:30pm 23.9 SE 21 24 1018.9 - - - - - - - - -
20/01:20pm 23.7 SE 21 - 1018.9 - - - - - - - - -
20/01:00pm 23.7 ESE 20 23 1019.2 - - - - - - - - -
20/12:30pm 23.7 ESE 21 25 1019.7 - - - - - - - - -
20/12:20pm 23.8 SE 20 - 1019.8 - - - - - - - - -
20/12:00pm 23.6 SE 20 23 1020.4 - - - - - - - - -
20/11:30am 23.5 SE 17 20 1020.7 - - - - - - - - -
20/11:20am 23.6 SE 17 - 1020.6 - - - - - - - - -
20/11:00am 23.4 SE 16 18 1020.8 - - - - - - - - -
20/10:30am 23.4 SE 17 21 1021.1 - - - - - - - - -
20/10:20am 23.5 ESE 17 - 1021.1 - - - - - - - - -
20/10:00am 23.5 SE 17 20 1021.4 - - - - - - - - -
20/09:30am 23.8 SE 19 21 1021.5 - - - - - - - - -
20/09:20am 23.7 ESE 18 - 1021.4 - - - - - - - - -
20/09:00am 23.9 SE 20 23 1021.6 - - - - - - - - -
20/08:30am 23.6 ESE 18 23 1021.7 - - - - - - - - -
20/08:20am 23.6 ESE 21 - 1021.5 - - - - - - - - -
20/08:00am 23.4 SE 23 26 1021.5 - - - - - - - - -
20/07:30am 23.8 SE 23 28 1021.2 - - - - - - - - -
20/07:20am 23.8 ESE 22 - 1021.0 - - - - - - - - -
20/07:00am 23.6 SE 21 25 1021.0 - - - - - - - - -
20/06:30am 23.5 SE 22 25 1020.8 - - - - - - - - -
20/06:20am 23.4 SE 21 - 1020.7 - - - - - - - - -
20/06:00am 23.3 SE 20 24 1020.5 - - - - - - - - -
20/05:30am 23.3 SE 20 23 1020.1 - - - - - - - - -
20/05:20am 23.3 SE 19 - 1019.9 - - - - - - - - -
20/05:00am 23.3 SE 20 23 1019.7 - - - - - - - - -
20/04:30am 22.9 SE 21 24 1019.5 - - - - - - - - -
20/04:20am 22.7 SE 21 - 1019.4 - - - - - - - - -
20/04:00am 22.7 SE 21 25 1019.3 - - - - - - - - -
20/03:30am 23.1 SE 23 26 1019.2 - - - - - - - - -
20/03:20am 23.1 SE 23 - 1019.1 - - - - - - - - -
20/03:00am 23.1 SE 23 27 1019.2 - - - - - - - - -
20/02:30am 23.1 ESE 25 28 1019.1 - - - - - - - - -
20/02:20am 23.1 ESE 24 - 1019.1 - - - - - - - - -
20/02:00am 23.1 ESE 23 28 1019.2 - - - - - - - - -
20/01:30am 22.9 SE 22 27 1019.6 - - - - - - - - -
20/01:20am 22.7 SE 24 - 1019.7 - - - - - - - - -
20/01:00am 23.1 SE 19 23 1020.0 - - - - - - - - -
20/12:30am 22.9 SE 21 25 1020.5 - - - - - - - - -
20/12:20am 22.7 SE 20 - 1020.5 - - - - - - - - -
20/12:00am 22.9 SE 23 25 1020.9 - - - - - - - - -
 
Date/Time
EST
Temp

°C
Wind Pressure Rain
since 9am
mm
Weather Cloud Vis
km
Sea
Height
m
Swell
Dir
 
Speed
knots
Gust
knots
hPa Trend Height
m
Period
s
Dir
19/11:30pm 23.0 SE 24 27 1021.2 - - - - - - - - -
19/11:20pm 23.0 SE 23 - 1021.2 - - - - - - - - -
19/11:00pm 23.3 SE 21 25 1021.6 - - - - - - - - -
19/10:30pm 23.1 SE 24 28 1021.8 - - - - - - - - -
19/10:20pm 23.2 SE 23 - 1021.8 - - - - - - - - -
19/10:00pm 23.1 SE 24 29 1021.9 - - - - - - - - -
19/09:30pm 23.2 SE 25 29 1021.9 - - - - - - - - -
19/09:20pm 23.2 SE 24 - 1021.8 - - - - - - - - -
19/09:00pm 23.3 SE 26 31 1021.7 - - - - - - - - -
19/08:30pm 23.2 SE 25 30 1021.4 - - - - - - - - -
19/08:20pm 23.2 SE 25 - 1021.2 - - - - - - - - -
19/08:00pm 23.2 SE 26 30 1021.2 - - - - - - - - -
19/07:30pm 23.3 ESE 27 32 1020.9 - - - - - - - - -
19/07:20pm 23.3 SE 27 - 1020.7 - - - - - - - - -
19/07:00pm 23.3 SE 27 31 1020.7 - - - - - - - - -
19/06:30pm 23.5 SE 26 31 1020.5 - - - - - - - - -
19/06:20pm 23.4 SE 26 - 1020.3 - - - - - - - - -
19/06:00pm 23.4 ESE 25 28 1020.3 - - - - - - - - -
19/05:30pm 23.3 SE 24 28 1020.2 - - - - - - - - -
19/05:20pm 23.4 SE 24 - 1020.0 - - - - - - - - -
19/05:00pm 23.4 SE 24 30 1019.9 - - - - - - - - -
19/04:30pm 23.5 SE 25 29 1019.6 - - - - - - - - -
19/04:20pm 23.5 SE 25 - 1019.5 - - - - - - - - -
19/04:00pm 23.4 SE 25 29 1019.4 - - - - - - - - -
19/03:30pm 23.3 SE 25 30 1019.2 - - - - - - - - -
19/03:20pm 23.3 SE 25 - 1019.1 - - - - - - - - -
19/03:00pm 23.6 SE 24 28 1019.2 - - - - - - - - -
19/02:30pm 23.5 SE 25 28 1019.3 - - - - - - - - -
19/02:20pm 23.6 SE 26 - 1019.2 - - - - - - - - -
19/02:00pm 23.5 SE 26 32 1019.4 - - - - - - - - -
19/01:30pm 23.5 SE 26 31 1019.7 - - - - - - - - -
19/01:20pm 23.6 SE 26 - 1019.7 - - - - - - - - -
19/01:00pm 23.5 SE 27 31 1020.0 - - - - - - - - -
19/12:30pm 23.6 SE 27 30 1020.2 - - - - - - - - -
19/12:20pm 23.5 SE 27 - 1020.2 - - - - - - - - -
19/12:00pm 23.4 SE 25 30 1020.5 - - - - - - - - -

Other Formats:

Comma delimited format used in spreadsheet applications
http://www.bom.gov.au/fwo/IDQ60701/IDQ60701.94371.axf

JavaScript Object Notation format (JSON) in row-major order
http://www.bom.gov.au/fwo/IDQ60701/IDQ60701.94371.json